createdAt,value
2023-12-30T00:00:25.067Z,77.18
2023-12-30T00:02:52.111Z,77.33
2023-12-30T00:05:19.169Z,76.95
2023-12-30T00:07:46.130Z,77.09
2023-12-30T00:10:12.946Z,77.43
2023-12-30T00:12:39.534Z,77.62
2023-12-30T00:15:06.787Z,77.66
2023-12-30T00:17:33.445Z,77.40
2023-12-30T00:20:00.117Z,77.06
2023-12-30T00:22:28.636Z,77.28
2023-12-30T00:24:55.684Z,77.37
2023-12-30T00:27:22.315Z,77.49
2023-12-30T00:29:50.869Z,77.21
2023-12-30T00:32:17.918Z,77.42
2023-12-30T00:34:44.650Z,77.24
2023-12-30T00:37:11.344Z,77.46
2023-12-30T00:39:40.949Z,77.71
2023-12-30T00:42:07.532Z,77.22
2023-12-30T00:44:34.048Z,77.90
2023-12-30T00:47:00.530Z,77.75
2023-12-30T00:49:27.066Z,77.55
2023-12-30T00:51:53.620Z,78.01
2023-12-30T00:54:20.223Z,78.26
2023-12-30T00:56:47.357Z,78.05
2023-12-30T00:59:13.968Z,77.90
2023-12-30T01:01:40.655Z,78.00
2023-12-30T01:04:07.366Z,78.12
2023-12-30T01:06:34.127Z,77.31
2023-12-30T01:09:01.894Z,77.24
2023-12-30T01:11:28.428Z,77.87
2023-12-30T01:13:54.923Z,77.63
2023-12-30T01:16:21.448Z,77.80
2023-12-30T01:18:48.157Z,77.26
2023-12-30T01:21:14.851Z,76.81
2023-12-30T01:23:41.394Z,76.99
2023-12-30T01:26:07.894Z,76.90
2023-12-30T01:28:35.406Z,77.16
2023-12-30T01:31:02.186Z,76.69
2023-12-30T01:33:28.922Z,76.76
2023-12-30T01:35:56.391Z,76.89
2023-12-30T01:38:22.861Z,77.24
2023-12-30T01:40:49.473Z,77.19
2023-12-30T01:43:25.802Z,76.92
2023-12-30T01:45:57.198Z,77.46
2023-12-30T01:48:24.193Z,77.31
2023-12-30T01:50:53.127Z,77.83
2023-12-30T01:53:20.722Z,77.68
2023-12-30T01:55:51.295Z,77.61
2023-12-30T01:58:19.683Z,77.27
2023-12-30T02:00:49.884Z,77.59
2023-12-30T02:03:17.162Z,77.68
2023-12-30T02:05:43.955Z,77.28
2023-12-30T02:08:10.799Z,77.28
2023-12-30T02:10:37.569Z,77.16
2023-12-30T02:13:04.813Z,78.05
2023-12-30T02:15:31.667Z,77.51
2023-12-30T02:17:58.433Z,77.93
2023-12-30T02:20:26.141Z,78.04
2023-12-30T02:22:52.793Z,77.35
2023-12-30T02:25:19.428Z,78.22
2023-12-30T02:27:46.943Z,77.64
2023-12-30T02:30:14.637Z,78.22
2023-12-30T02:32:41.736Z,78.10
2023-12-30T02:35:08.946Z,78.02
2023-12-30T02:37:35.475Z,77.89
2023-12-30T02:40:02.154Z,78.31
2023-12-30T02:42:28.732Z,78.37
2023-12-30T02:44:55.294Z,78.34
2023-12-30T02:47:21.820Z,77.98
2023-12-30T02:49:48.421Z,78.33
2023-12-30T02:52:15.030Z,78.58
2023-12-30T02:54:41.703Z,78.00
2023-12-30T02:57:08.249Z,77.59
2023-12-30T02:59:34.803Z,77.66
2023-12-30T03:02:01.415Z,78.26
2023-12-30T03:04:28.182Z,77.98
2023-12-30T03:06:54.827Z,77.50
2023-12-30T03:09:21.418Z,77.71
2023-12-30T03:11:47.976Z,77.34
2023-12-30T03:14:14.609Z,77.35
2023-12-30T03:16:41.204Z,76.93
2023-12-30T03:19:07.850Z,76.54
2023-12-30T03:21:34.557Z,77.45
2023-12-30T03:24:01.102Z,77.31
2023-12-30T03:26:27.678Z,76.83
2023-12-30T03:28:54.206Z,76.58
2023-12-30T03:31:25.551Z,76.72
2023-12-30T03:33:52.399Z,77.24
2023-12-30T03:36:19.085Z,77.42
2023-12-30T03:38:48.136Z,77.06
2023-12-30T03:41:14.917Z,77.30
2023-12-30T03:43:41.547Z,77.13
2023-12-30T03:46:08.279Z,77.31
2023-12-30T03:48:34.963Z,76.92
2023-12-30T03:51:01.470Z,76.99
2023-12-30T03:53:27.990Z,76.86
2023-12-30T03:55:54.534Z,77.35
2023-12-30T03:58:21.412Z,76.84
2023-12-30T04:00:48.059Z,77.03
2023-12-30T04:03:14.674Z,77.28
2023-12-30T04:05:41.711Z,76.64
2023-12-30T04:08:08.301Z,77.20
2023-12-30T04:10:35.481Z,77.87
2023-12-30T04:13:02.427Z,77.75
2023-12-30T04:15:29.939Z,77.04
2023-12-30T04:17:56.516Z,76.73
2023-12-30T04:20:23.058Z,76.56
2023-12-30T04:22:49.553Z,76.66
2023-12-30T04:25:16.109Z,76.91
2023-12-30T04:27:42.663Z,77.31
2023-12-30T04:30:09.532Z,77.15
2023-12-30T04:32:36.188Z,76.98
2023-12-30T04:35:02.884Z,76.75
2023-12-30T04:37:29.444Z,76.60
2023-12-30T04:39:56.047Z,76.22
2023-12-30T04:42:22.616Z,76.07
2023-12-30T04:44:49.127Z,76.00
2023-12-30T04:47:15.616Z,75.82
2023-12-30T04:49:42.177Z,75.98
2023-12-30T04:52:08.814Z,75.90
2023-12-30T04:54:36.065Z,75.71
2023-12-30T04:57:02.603Z,76.08
2023-12-30T04:59:29.506Z,75.43
2023-12-30T05:01:56.087Z,75.24
2023-12-30T05:04:23.317Z,74.88
2023-12-30T05:06:51.722Z,75.41
2023-12-30T05:09:18.371Z,75.24
2023-12-30T05:11:45.755Z,74.54
2023-12-30T05:14:12.627Z,75.35
2023-12-30T05:16:46.724Z,74.81
2023-12-30T05:19:14.221Z,74.75
2023-12-30T05:21:42.751Z,74.71
2023-12-30T05:24:09.858Z,75.43
2023-12-30T05:26:36.431Z,74.43
2023-12-30T05:29:03.062Z,74.62
2023-12-30T05:31:29.626Z,75.00
2023-12-30T05:33:56.428Z,74.53
2023-12-30T05:36:23.229Z,74.81
2023-12-30T05:38:49.811Z,74.54
2023-12-30T05:41:16.394Z,74.39
2023-12-30T05:43:43.033Z,74.74
2023-12-30T05:46:15.748Z,75.02
2023-12-30T05:48:42.809Z,74.16
2023-12-30T05:51:09.337Z,76.75
2023-12-30T05:53:35.826Z,76.57
2023-12-30T05:56:02.349Z,73.52
2023-12-30T05:58:30.320Z,75.14
2023-12-30T06:00:56.949Z,71.52
2023-12-30T06:03:23.598Z,71.27
2023-12-30T06:05:50.120Z,72.40
2023-12-30T06:08:18.568Z,70.58
2023-12-30T06:10:50.527Z,73.39
2023-12-30T06:13:17.187Z,74.01
2023-12-30T06:15:48.965Z,73.48
2023-12-30T06:18:15.577Z,72.15
2023-12-30T06:20:45.773Z,72.08
2023-12-30T06:23:12.403Z,70.71
2023-12-30T06:25:39.364Z,69.67
2023-12-30T06:28:06.370Z,69.86
2023-12-30T06:30:32.969Z,69.69
2023-12-30T06:33:00.749Z,70.53
2023-12-30T06:35:27.507Z,69.39
2023-12-30T06:37:54.105Z,68.41
2023-12-30T06:40:20.656Z,68.79
2023-12-30T06:42:48.540Z,68.85
2023-12-30T06:45:15.198Z,71.25
2023-12-30T06:47:43.680Z,70.65
2023-12-30T06:50:13.279Z,71.21
2023-12-30T06:52:39.831Z,70.74
2023-12-30T06:55:17.992Z,68.43
2023-12-30T06:57:47.830Z,69.51
2023-12-30T07:00:14.677Z,69.46
2023-12-30T07:02:42.893Z,72.33
2023-12-30T07:05:10.018Z,68.93
2023-12-30T07:07:37.012Z,69.00
2023-12-30T07:10:07.152Z,69.53
2023-12-30T07:12:34.105Z,68.09
2023-12-30T07:15:00.743Z,69.07
2023-12-30T07:17:27.852Z,68.10
2023-12-30T07:19:54.582Z,68.68
2023-12-30T07:22:21.329Z,69.45
2023-12-30T07:24:50.438Z,69.93
2023-12-30T07:27:16.989Z,70.30
2023-12-30T07:29:43.510Z,70.97
2023-12-30T07:32:10.029Z,71.11
2023-12-30T07:34:36.661Z,71.66
2023-12-30T07:37:03.829Z,72.17
2023-12-30T07:39:30.527Z,71.88
2023-12-30T07:41:57.240Z,72.37
2023-12-30T07:44:23.795Z,73.04
2023-12-30T07:46:50.303Z,72.77
2023-12-30T07:49:18.453Z,73.08
2023-12-30T07:51:45.304Z,73.58
2023-12-30T07:54:12.095Z,73.74
2023-12-30T07:56:38.595Z,73.77
2023-12-30T07:59:05.216Z,74.36
2023-12-30T08:01:31.888Z,74.59
2023-12-30T08:03:58.861Z,73.76
2023-12-30T08:06:25.734Z,74.21
2023-12-30T08:08:52.269Z,74.94
2023-12-30T08:11:18.948Z,74.60
2023-12-30T08:13:45.512Z,74.25
2023-12-30T08:16:12.267Z,74.77
2023-12-30T08:18:38.985Z,73.58
2023-12-30T08:21:05.651Z,74.10
2023-12-30T08:23:32.202Z,73.85
2023-12-30T08:25:58.740Z,74.22
2023-12-30T08:28:25.341Z,74.80
2023-12-30T08:30:55.122Z,73.77
2023-12-30T08:33:22.171Z,74.49
2023-12-30T08:35:50.429Z,74.87
2023-12-30T08:38:19.702Z,73.95
2023-12-30T08:40:46.613Z,74.91
2023-12-30T08:43:13.614Z,74.38
2023-12-30T08:45:40.186Z,74.83
2023-12-30T08:48:07.640Z,74.29
2023-12-30T08:50:34.364Z,74.12
2023-12-30T08:53:01.249Z,73.85
2023-12-30T08:55:28.314Z,74.09
2023-12-30T08:57:54.931Z,73.97
2023-12-30T09:00:21.612Z,73.80
2023-12-30T09:02:48.885Z,73.68
2023-12-30T09:05:21.335Z,73.90
2023-12-30T09:07:52.523Z,74.12
2023-12-30T09:10:19.929Z,74.11
2023-12-30T09:12:46.922Z,74.70
2023-12-30T09:15:13.603Z,73.33
2023-12-30T09:17:40.386Z,74.19
2023-12-30T09:20:07.431Z,74.26
2023-12-30T09:22:34.066Z,73.32
2023-12-30T09:25:01.318Z,73.80
2023-12-30T09:27:27.971Z,73.42
2023-12-30T09:29:54.494Z,72.84
2023-12-30T09:32:21.021Z,72.59
2023-12-30T09:34:47.591Z,73.03
2023-12-30T09:37:16.152Z,72.66
2023-12-30T09:39:43.630Z,73.24
2023-12-30T09:42:10.375Z,72.77
2023-12-30T09:44:38.595Z,73.49
2023-12-30T09:47:09.038Z,72.18
2023-12-30T09:49:38.875Z,72.07
2023-12-30T09:52:08.546Z,72.04
2023-12-30T09:54:45.344Z,72.58
2023-12-30T09:57:15.737Z,71.52
2023-12-30T09:59:42.895Z,71.29
2023-12-30T10:02:11.202Z,71.00
2023-12-30T10:04:38.577Z,70.73
2023-12-30T10:07:06.346Z,70.62
2023-12-30T10:09:33.192Z,70.33
2023-12-30T10:11:59.782Z,70.67
2023-12-30T10:14:26.654Z,71.32
2023-12-30T10:16:53.219Z,70.56
2023-12-30T10:19:19.927Z,70.35
2023-12-30T10:21:46.565Z,70.25
2023-12-30T10:24:13.114Z,69.77
2023-12-30T10:26:41.117Z,70.03
2023-12-30T10:29:09.137Z,69.44
2023-12-30T10:31:35.765Z,70.61
2023-12-30T10:34:02.909Z,70.52
2023-12-30T10:36:29.756Z,69.15
2023-12-30T10:38:56.701Z,69.56
2023-12-30T10:41:23.275Z,69.15
2023-12-30T10:43:49.880Z,68.54
2023-12-30T10:46:19.696Z,68.23
2023-12-30T10:48:57.114Z,68.27
2023-12-30T10:51:31.778Z,67.64
2023-12-30T10:54:08.493Z,67.56
2023-12-30T10:56:41.755Z,68.95
2023-12-30T10:59:08.894Z,67.91
2023-12-30T11:01:37.540Z,68.13
2023-12-30T11:04:12.596Z,66.99
2023-12-30T11:06:45.657Z,66.96
2023-12-30T11:09:14.486Z,67.19
2023-12-30T11:12:02.887Z,66.62
2023-12-30T11:14:29.633Z,66.11
2023-12-30T11:16:58.491Z,66.13
2023-12-30T11:19:30.205Z,66.95
2023-12-30T11:21:59.783Z,66.96
2023-12-30T11:24:27.637Z,67.30
2023-12-30T11:26:55.525Z,66.57
2023-12-30T11:29:27.562Z,67.43
2023-12-30T11:31:56.221Z,67.27
2023-12-30T11:34:25.359Z,68.69
2023-12-30T11:36:54.618Z,67.09
2023-12-30T11:39:29.382Z,67.88
2023-12-30T11:42:01.419Z,68.33
2023-12-30T11:44:29.010Z,68.04
2023-12-30T11:46:55.703Z,68.94
2023-12-30T11:49:24.029Z,69.76
2023-12-30T11:51:51.167Z,69.62
2023-12-30T11:54:19.127Z,69.43
2023-12-30T11:56:46.851Z,69.94
2023-12-30T11:59:13.638Z,71.00
2023-12-30T12:01:40.887Z,70.68
2023-12-30T12:04:09.587Z,70.75
2023-12-30T12:06:37.253Z,68.93
2023-12-30T12:09:05.340Z,69.73
2023-12-30T12:11:32.059Z,69.74
2023-12-30T12:14:02.882Z,70.23
2023-12-30T12:16:33.551Z,69.69
2023-12-30T12:19:04.167Z,70.14
2023-12-30T12:21:31.003Z,69.24
2023-12-30T12:23:57.993Z,68.42
2023-12-30T12:26:25.900Z,69.06
2023-12-30T12:28:54.476Z,68.34
2023-12-30T12:31:21.107Z,67.76
2023-12-30T12:33:47.675Z,67.50
2023-12-30T12:36:14.309Z,67.31
2023-12-30T12:38:40.846Z,66.74
2023-12-30T12:41:07.704Z,66.72
2023-12-30T12:43:35.016Z,66.30
2023-12-30T12:46:04.013Z,65.99
2023-12-30T12:48:30.955Z,66.13
2023-12-30T12:50:57.598Z,65.22
2023-12-30T12:53:24.678Z,65.74
2023-12-30T12:55:51.375Z,65.97
2023-12-30T12:58:18.109Z,66.96
2023-12-30T13:00:44.986Z,66.08
2023-12-30T13:03:12.124Z,65.50
2023-12-30T13:05:39.005Z,66.13
2023-12-30T13:08:05.923Z,64.89
2023-12-30T13:10:35.173Z,64.71
2023-12-30T13:13:02.303Z,65.20
2023-12-30T13:15:29.074Z,65.46
2023-12-30T13:17:55.792Z,64.90
2023-12-30T13:20:22.440Z,63.55
2023-12-30T13:22:57.538Z,62.15
2023-12-30T13:25:29.304Z,61.86
2023-12-30T13:27:56.208Z,62.69
2023-12-30T13:30:24.308Z,62.14
2023-12-30T13:32:58.901Z,62.59
2023-12-30T13:35:38.302Z,61.61
2023-12-30T13:38:12.565Z,61.97
2023-12-30T13:40:46.212Z,62.11
2023-12-30T13:43:13.338Z,61.96
2023-12-30T13:45:47.601Z,61.90
2023-12-30T13:48:33.631Z,62.05
2023-12-30T13:51:02.417Z,61.72
2023-12-30T13:53:29.487Z,63.17
2023-12-30T13:56:07.144Z,61.66
2023-12-30T13:58:34.632Z,62.07
2023-12-30T14:01:01.580Z,61.74
2023-12-30T14:03:28.785Z,61.58
2023-12-30T14:05:56.000Z,62.64
2023-12-30T14:08:36.840Z,62.24
2023-12-30T14:11:08.954Z,62.30
2023-12-30T14:13:35.980Z,62.50
2023-12-30T14:16:02.583Z,62.10
2023-12-30T14:18:29.385Z,62.81
2023-12-30T14:20:56.053Z,62.40
2023-12-30T14:23:22.559Z,63.35
2023-12-30T14:25:49.113Z,62.86
2023-12-30T14:28:15.983Z,63.24
2023-12-30T14:30:44.000Z,62.65
2023-12-30T14:33:10.656Z,62.93
2023-12-30T14:35:37.616Z,62.87
2023-12-30T14:38:05.911Z,63.25
2023-12-30T14:40:32.570Z,63.84
2023-12-30T14:42:59.199Z,64.21
2023-12-30T14:45:25.689Z,64.70
2023-12-30T14:47:52.234Z,63.78
2023-12-30T14:50:18.875Z,64.51
2023-12-30T14:52:45.687Z,64.92
2023-12-30T14:55:12.609Z,64.82
2023-12-30T14:57:40.628Z,64.27
2023-12-30T15:00:12.416Z,65.06
2023-12-30T15:02:39.191Z,63.77
2023-12-30T15:05:06.582Z,63.96
2023-12-30T15:07:33.240Z,64.29
2023-12-30T15:09:59.976Z,64.29
2023-12-30T15:12:26.896Z,64.48
2023-12-30T15:14:53.439Z,64.66
2023-12-30T15:17:20.128Z,64.65
2023-12-30T15:19:47.099Z,65.09
2023-12-30T15:22:14.316Z,64.81
2023-12-30T15:24:40.885Z,64.70
2023-12-30T15:27:07.383Z,64.33
2023-12-30T15:29:33.873Z,64.77
2023-12-30T15:32:01.504Z,65.03
2023-12-30T15:34:28.550Z,64.63
2023-12-30T15:36:55.147Z,65.29
2023-12-30T15:39:21.722Z,65.65
2023-12-30T15:41:48.369Z,65.88
2023-12-30T15:44:15.474Z,65.59
2023-12-30T15:46:42.069Z,65.86
2023-12-30T15:49:10.372Z,66.22
2023-12-30T15:51:37.255Z,66.63
2023-12-30T15:54:04.287Z,66.38
2023-12-30T15:56:30.835Z,66.93
2023-12-30T15:58:57.414Z,67.43
2023-12-30T16:01:23.973Z,66.75
2023-12-30T16:03:50.803Z,67.93
2023-12-30T16:06:17.550Z,68.47
2023-12-30T16:08:44.447Z,68.37
2023-12-30T16:11:11.242Z,69.31
2023-12-30T16:13:39.702Z,70.03
2023-12-30T16:16:06.794Z,70.54
2023-12-30T16:18:33.445Z,70.29
2023-12-30T16:21:00.041Z,71.24
2023-12-30T16:23:26.854Z,71.42
2023-12-30T16:25:53.363Z,71.79
2023-12-30T16:28:19.935Z,72.30
2023-12-30T16:30:46.993Z,72.49
2023-12-30T16:33:13.673Z,72.70
2023-12-30T16:35:40.395Z,72.29
2023-12-30T16:38:06.954Z,72.95
2023-12-30T16:40:33.705Z,72.65
2023-12-30T16:43:00.388Z,72.39
2023-12-30T16:45:27.032Z,73.40
2023-12-30T16:47:53.836Z,72.57
2023-12-30T16:50:20.760Z,73.40
2023-12-30T16:52:47.387Z,73.00
2023-12-30T16:55:14.248Z,72.78
2023-12-30T16:57:40.823Z,73.29
2023-12-30T17:00:10.432Z,73.60
2023-12-30T17:02:38.104Z,73.45
2023-12-30T17:05:05.065Z,73.02
2023-12-30T17:07:31.747Z,73.51
2023-12-30T17:09:59.570Z,73.22
2023-12-30T17:12:26.181Z,73.38
2023-12-30T17:14:52.703Z,73.97
2023-12-30T17:17:19.243Z,73.07
2023-12-30T17:19:45.956Z,73.88
2023-12-30T17:22:12.963Z,73.95
2023-12-30T17:24:39.649Z,73.62
2023-12-30T17:27:06.533Z,73.63
2023-12-30T17:29:33.435Z,74.25
2023-12-30T17:31:59.978Z,74.96
2023-12-30T17:34:26.641Z,74.77
2023-12-30T17:36:53.149Z,75.42
2023-12-30T17:39:19.734Z,75.91
2023-12-30T17:41:46.255Z,76.33
2023-12-30T17:44:12.862Z,76.36
2023-12-30T17:46:39.475Z,76.92
2023-12-30T17:49:06.468Z,76.32
2023-12-30T17:51:33.050Z,76.84
2023-12-30T17:53:59.610Z,77.38
2023-12-30T17:56:26.187Z,76.92
2023-12-30T17:58:54.366Z,77.14
2023-12-30T18:01:20.938Z,77.09
2023-12-30T18:03:47.655Z,77.41
2023-12-30T18:06:14.208Z,76.56
2023-12-30T18:08:40.728Z,76.95
2023-12-30T18:11:07.323Z,77.44
2023-12-30T18:13:34.036Z,77.10
2023-12-30T18:16:00.820Z,78.18
2023-12-30T18:18:27.611Z,77.24
2023-12-30T18:20:54.157Z,77.60
2023-12-30T18:23:20.779Z,77.68
2023-12-30T18:25:47.302Z,77.63
2023-12-30T18:28:13.887Z,77.75
2023-12-30T18:30:42.544Z,78.19
2023-12-30T18:33:11.512Z,78.44
2023-12-30T18:35:39.847Z,78.28
2023-12-30T18:38:06.392Z,78.47
2023-12-30T18:40:35.681Z,78.57
2023-12-30T18:43:02.556Z,79.08
2023-12-30T18:45:29.217Z,79.44
2023-12-30T18:47:55.784Z,79.16
2023-12-30T18:50:22.648Z,78.12
2023-12-30T18:52:50.699Z,78.61
2023-12-30T18:55:17.405Z,78.07
2023-12-30T18:57:44.017Z,78.69
2023-12-30T19:00:11.220Z,78.66
2023-12-30T19:02:41.461Z,78.46
2023-12-30T19:05:09.998Z,78.04
2023-12-30T19:07:36.958Z,78.06
2023-12-30T19:10:05.931Z,78.43
2023-12-30T19:12:32.608Z,78.89
2023-12-30T19:14:59.414Z,78.85
2023-12-30T19:17:27.984Z,78.88
2023-12-30T19:19:54.793Z,78.63
2023-12-30T19:22:21.455Z,79.39
2023-12-30T19:24:47.993Z,80.01
2023-12-30T19:27:14.484Z,80.17
2023-12-30T19:29:41.000Z,80.30
2023-12-30T19:32:07.739Z,80.20
2023-12-30T19:34:34.328Z,80.37
2023-12-30T19:37:01.224Z,80.14
2023-12-30T19:39:27.718Z,80.08
2023-12-30T19:41:54.250Z,79.52
2023-12-30T19:44:20.884Z,78.90
2023-12-30T19:46:47.529Z,78.51
2023-12-30T19:49:16.521Z,79.45
2023-12-30T19:51:43.170Z,79.60
2023-12-30T19:54:09.645Z,80.38
2023-12-30T19:56:36.539Z,79.99
2023-12-30T19:59:03.761Z,80.20
2023-12-30T20:01:31.651Z,80.70
2023-12-30T20:03:58.279Z,80.36
2023-12-30T20:06:24.917Z,80.38
2023-12-30T20:08:51.420Z,80.54
2023-12-30T20:11:17.924Z,80.91
2023-12-30T20:13:44.443Z,81.04
2023-12-30T20:16:12.477Z,80.99
2023-12-30T20:18:39.226Z,80.23
2023-12-30T20:21:06.461Z,80.22
2023-12-30T20:23:35.480Z,80.88
2023-12-30T20:26:02.583Z,80.44
2023-12-30T20:28:29.156Z,80.12
2023-12-30T20:30:56.044Z,80.35
2023-12-30T20:33:22.683Z,79.88
2023-12-30T20:35:49.640Z,79.91
2023-12-30T20:38:16.718Z,79.79
2023-12-30T20:40:46.691Z,79.95
2023-12-30T20:43:13.684Z,79.99
2023-12-30T20:45:44.240Z,80.30
2023-12-30T20:48:10.933Z,80.34
2023-12-30T20:50:38.289Z,79.76
2023-12-30T20:53:06.588Z,80.16
2023-12-30T20:55:33.455Z,80.39
2023-12-30T20:58:00.332Z,80.40
2023-12-30T21:00:26.846Z,80.27
2023-12-30T21:02:53.447Z,80.33
2023-12-30T21:05:20.179Z,79.98
2023-12-30T21:07:46.792Z,79.95
2023-12-30T21:10:14.947Z,79.17
2023-12-30T21:12:41.467Z,80.14
2023-12-30T21:15:08.350Z,79.75
2023-12-30T21:17:34.912Z,79.70
2023-12-30T21:20:01.413Z,79.04
2023-12-30T21:22:29.799Z,79.65
2023-12-30T21:24:56.457Z,79.55
2023-12-30T21:27:23.326Z,79.39
2023-12-30T21:29:49.861Z,79.27
2023-12-30T21:32:16.446Z,79.08
2023-12-30T21:34:43.397Z,79.29
2023-12-30T21:37:10.653Z,79.25
2023-12-30T21:39:37.229Z,78.41
2023-12-30T21:42:04.027Z,78.23
2023-12-30T21:44:31.681Z,77.93
2023-12-30T21:46:58.256Z,77.93
2023-12-30T21:49:25.527Z,77.40
2023-12-30T21:51:52.055Z,77.69
2023-12-30T21:54:18.633Z,77.17
2023-12-30T21:56:45.136Z,78.27
2023-12-30T21:59:12.054Z,78.04
2023-12-30T22:01:38.864Z,77.90
2023-12-30T22:04:06.229Z,78.26
2023-12-30T22:06:33.410Z,78.00
2023-12-30T22:08:59.922Z,78.17
2023-12-30T22:11:28.243Z,78.37
2023-12-30T22:13:54.992Z,78.38
2023-12-30T22:16:21.617Z,78.72
2023-12-30T22:18:48.277Z,79.10
2023-12-30T22:21:17.594Z,78.98
2023-12-30T22:23:44.285Z,79.30
2023-12-30T22:26:10.860Z,79.48
2023-12-30T22:28:38.273Z,79.40
2023-12-30T22:31:11.391Z,80.03
2023-12-30T22:33:38.168Z,78.68
2023-12-30T22:36:05.039Z,78.26
2023-12-30T22:38:31.973Z,78.33
2023-12-30T22:40:58.623Z,78.04
2023-12-30T22:43:25.364Z,79.67
2023-12-30T22:45:52.001Z,79.61
2023-12-30T22:48:20.948Z,78.13
2023-12-30T22:50:47.469Z,77.97
2023-12-30T22:53:14.065Z,78.53
2023-12-30T22:55:40.612Z,78.26
2023-12-30T22:58:07.160Z,79.26
2023-12-30T23:00:35.125Z,78.41
2023-12-30T23:03:02.739Z,79.15
2023-12-30T23:05:29.434Z,78.69
2023-12-30T23:07:56.000Z,78.41
2023-12-30T23:10:22.628Z,78.77
2023-12-30T23:12:49.281Z,78.52
2023-12-30T23:15:15.857Z,78.70
2023-12-30T23:17:42.436Z,79.19
2023-12-30T23:20:10.083Z,78.82
2023-12-30T23:22:37.095Z,79.48
2023-12-30T23:25:06.145Z,79.74
2023-12-30T23:27:33.821Z,79.63
2023-12-30T23:30:01.184Z,79.55
2023-12-30T23:32:27.903Z,79.18
2023-12-30T23:34:56.117Z,78.96
2023-12-30T23:37:22.787Z,79.55
2023-12-30T23:39:49.476Z,79.48
2023-12-30T23:42:16.060Z,79.27
2023-12-30T23:44:43.676Z,79.65
2023-12-30T23:47:10.229Z,79.84
2023-12-30T23:49:36.792Z,80.30
2023-12-30T23:52:03.473Z,79.88
2023-12-30T23:54:30.023Z,79.80
2023-12-30T23:56:57.074Z,80.34
2023-12-30T23:59:23.656Z,80.61
